Prince George Airport
CYXS : now visible

Airfield :











YOU CAN JOIN US ON...

 
LOGIN :

Register | Disclaimer

   EN    FR    IT 

 









Legend :    VFR   Marginal VFR   IFR   Intensive IFR   Very Intensive IFR
Visi :
Ceiling :
>= 8 km
>= 3000ft
5 to 8 km
1000 to 3000 ft
1500m to 5 km
500 to 1000 ft
800 to 1500m
200 to 500 ft
< 800m
< 200 ft
Symbols :   Thunderstorms  Fog  Heavy snow  Heavy precipitations  Wind > 20 kt






- Airport Elevation : 2267 ft
- IATA code : YXS


CYXS - Prince George

CURRENT METAR :
  • 170235Z AUTO VRB03KT 5SM RA BR SCT023 OVC031 05/04 A2970 RMK SLP082

EXPIRED METARs :
  • 170200Z AUTO 10003KT 060V140 9SM -RA FEW030 OVC037 05/04 A2968 RMK SLP075
  • 170100Z AUTO 05006KT 9SM -RA SCT008 OVC040 05/04 A2967 RMK SLP070
  • 170055Z AUTO 04006KT 8SM -RA SCT008 SCT013 OVC042 05/05 A2967 RMK SLP070
  • 170037Z AUTO 01010G15KT 9SM -RA BKN008 BKN016 OVC021 06/05 A2968 RMK SLP073
  • 170000Z AUTO 32007KT 8SM RA FEW010 SCT013 BKN019 OVC041 07/07 A2967 RMK PCPN 5.2MM PAST HR SLP067
  • 162357Z AUTO 33008KT 8SM RA FEW010 SCT013 BKN019 OVC041 07/07 A2967 RMK SLP066

TAF TAF CYXS
Valid from the 17 at 01:00 until the 17 at 13:00 UTC


170040Z 1701/1713 32008KT P6SM -RA SCT008 OVC030
TEMPO 1701/1707 5SM -RA BR OVC008
FM170700 36005KT P6SM SCT008 BKN025
TEMPO 1707/1713 3SM -RA BR BKN008 OVC025 RMK FCST BASED ON AUTO OBS. NXT FCST BY 170700Z
CZVR FIR / North America



MET'MAP, your aeronautical weather chart ! - Copyright ORBIFLY December 2007 - Disclaimer

ORBIFLY MET'MAP TEAM :

Programming & Development : Alexandra Zaïnal
Concept & original design : Baudouin d'Aumeries
Assistance for programming : Marc-Olivier Méhu
Technical & hardware support : Manuel Goepfert

Contact : metmap@orbifly.com




SOURCES & CREDITS :

   NOAA       Earth
Advisory